sensor_id;sensor_type;location;lat;lon;timestamp;P1;durP1;ratioP1;P2;durP2;ratioP2
64885;SDS011;51514;52.206;5.114;2022-12-24T00:02:24;25.55;;;6.63;;
64885;SDS011;51514;52.206;5.114;2022-12-24T00:04:50;28.67;;;6.13;;
64885;SDS011;51514;52.206;5.114;2022-12-24T00:07:16;28.77;;;6.63;;
64885;SDS011;51514;52.206;5.114;2022-12-24T00:09:41;33.28;;;7.18;;
64885;SDS011;51514;52.206;5.114;2022-12-24T00:12:06;26.55;;;6.55;;
64885;SDS011;51514;52.206;5.114;2022-12-24T00:14:32;30.90;;;6.50;;
64885;SDS011;51514;52.206;5.114;2022-12-24T00:16:57;26.95;;;6.07;;
64885;SDS011;51514;52.206;5.114;2022-12-24T00:19:22;21.05;;;6.13;;
64885;SDS011;51514;52.206;5.114;2022-12-24T00:21:48;30.20;;;5.80;;
64885;SDS011;51514;52.206;5.114;2022-12-24T00:24:13;25.30;;;5.43;;
64885;SDS011;51514;52.206;5.114;2022-12-24T00:26:38;31.83;;;7.20;;
64885;SDS011;51514;52.206;5.114;2022-12-24T00:29:04;29.20;;;6.70;;
64885;SDS011;51514;52.206;5.114;2022-12-24T00:31:30;25.42;;;6.85;;
64885;SDS011;51514;52.206;5.114;2022-12-24T00:33:55;36.10;;;6.15;;
64885;SDS011;51514;52.206;5.114;2022-12-24T00:36:21;31.25;;;8.27;;
64885;SDS011;51514;52.206;5.114;2022-12-24T00:38:46;28.77;;;6.45;;
64885;SDS011;51514;52.206;5.114;2022-12-24T00:41:12;32.05;;;6.93;;
64885;SDS011;51514;52.206;5.114;2022-12-24T00:43:59;29.45;;;7.32;;
64885;SDS011;51514;52.206;5.114;2022-12-24T00:46:28;34.47;;;8.02;;
64885;SDS011;51514;52.206;5.114;2022-12-24T00:48:55;34.25;;;6.80;;
64885;SDS011;51514;52.206;5.114;2022-12-24T00:51:20;26.50;;;6.65;;
64885;SDS011;51514;52.206;5.114;2022-12-24T00:53:47;35.33;;;6.95;;
64885;SDS011;51514;52.206;5.114;2022-12-24T00:56:13;31.00;;;6.72;;
64885;SDS011;51514;52.206;5.114;2022-12-24T00:58:39;33.70;;;8.70;;
64885;SDS011;51514;52.206;5.114;2022-12-24T01:01:04;35.95;;;7.30;;
64885;SDS011;51514;52.206;5.114;2022-12-24T01:03:29;33.55;;;7.20;;
64885;SDS011;51514;52.206;5.114;2022-12-24T01:06:01;26.20;;;6.55;;
64885;SDS011;51514;52.206;5.114;2022-12-24T01:08:27;44.85;;;8.15;;
64885;SDS011;51514;52.206;5.114;2022-12-24T01:10:53;32.63;;;7.38;;
64885;SDS011;51514;52.206;5.114;2022-12-24T01:13:18;29.00;;;7.07;;
64885;SDS011;51514;52.206;5.114;2022-12-24T01:15:44;31.88;;;7.03;;
64885;SDS011;51514;52.206;5.114;2022-12-24T01:18:09;35.08;;;6.90;;
64885;SDS011;51514;52.206;5.114;2022-12-24T01:20:34;29.95;;;7.15;;
64885;SDS011;51514;52.206;5.114;2022-12-24T01:23:00;40.22;;;8.90;;
64885;SDS011;51514;52.206;5.114;2022-12-24T01:25:25;31.50;;;6.35;;
64885;SDS011;51514;52.206;5.114;2022-12-24T01:27:50;23.65;;;6.95;;
64885;SDS011;51514;52.206;5.114;2022-12-24T01:30:16;31.63;;;6.97;;
64885;SDS011;51514;52.206;5.114;2022-12-24T01:32:41;34.00;;;7.28;;
64885;SDS011;51514;52.206;5.114;2022-12-24T01:35:07;33.75;;;7.63;;
64885;SDS011;51514;52.206;5.114;2022-12-24T01:37:34;35.85;;;7.00;;
64885;SDS011;51514;52.206;5.114;2022-12-24T01:39:59;33.67;;;7.78;;
64885;SDS011;51514;52.206;5.114;2022-12-24T01:42:44;39.40;;;7.32;;
64885;SDS011;51514;52.206;5.114;2022-12-24T01:45:37;35.88;;;7.18;;
64885;SDS011;51514;52.206;5.114;2022-12-24T01:48:52;32.95;;;7.20;;
64885;SDS011;51514;52.206;5.114;2022-12-24T01:53:43;31.05;;;7.40;;
64885;SDS011;51514;52.206;5.114;2022-12-24T01:56:11;35.83;;;7.03;;
64885;SDS011;51514;52.206;5.114;2022-12-24T01:58:39;34.88;;;8.02;;
64885;SDS011;51514;52.206;5.114;2022-12-24T02:01:07;37.63;;;8.07;;
64885;SDS011;51514;52.206;5.114;2022-12-24T02:03:33;33.40;;;7.70;;
64885;SDS011;51514;52.206;5.114;2022-12-24T02:05:58;39.05;;;8.35;;
64885;SDS011;51514;52.206;5.114;2022-12-24T02:08:24;25.58;;;7.13;;
64885;SDS011;51514;52.206;5.114;2022-12-24T02:11:07;40.38;;;8.27;;
64885;SDS011;51514;52.206;5.114;2022-12-24T02:13:41;31.00;;;7.95;;
64885;SDS011;51514;52.206;5.114;2022-12-24T02:16:16;39.92;;;6.38;;
64885;SDS011;51514;52.206;5.114;2022-12-24T02:18:59;29.00;;;6.97;;
64885;SDS011;51514;52.206;5.114;2022-12-24T02:22:31;37.10;;;7.10;;
64885;SDS011;51514;52.206;5.114;2022-12-24T02:27:20;42.28;;;7.80;;
64885;SDS011;51514;52.206;5.114;2022-12-24T02:32:32;42.20;;;7.72;;
64885;SDS011;51514;52.206;5.114;2022-12-24T02:37:31;33.17;;;7.28;;
64885;SDS011;51514;52.206;5.114;2022-12-24T02:42:35;34.55;;;7.65;;
64885;SDS011;51514;52.206;5.114;2022-12-24T02:45:07;37.30;;;9.15;;
64885;SDS011;51514;52.206;5.114;2022-12-24T02:47:36;47.72;;;9.10;;
64885;SDS011;51514;52.206;5.114;2022-12-24T02:50:03;44.35;;;8.20;;
64885;SDS011;51514;52.206;5.114;2022-12-24T02:52:33;43.22;;;8.20;;
64885;SDS011;51514;52.206;5.114;2022-12-24T02:58:18;38.70;;;7.05;;
64885;SDS011;51514;52.206;5.114;2022-12-24T03:01:01;41.88;;;8.35;;
64885;SDS011;51514;52.206;5.114;2022-12-24T03:06:31;32.33;;;6.82;;
64885;SDS011;51514;52.206;5.114;2022-12-24T03:12:00;35.67;;;7.15;;
64885;SDS011;51514;52.206;5.114;2022-12-24T03:14:33;34.58;;;7.10;;
64885;SDS011;51514;52.206;5.114;2022-12-24T03:16:59;41.90;;;7.35;;
64885;SDS011;51514;52.206;5.114;2022-12-24T03:19:27;30.20;;;6.57;;
64885;SDS011;51514;52.206;5.114;2022-12-24T03:21:56;19.92;;;6.63;;
64885;SDS011;51514;52.206;5.114;2022-12-24T03:24:24;31.77;;;6.72;;
64885;SDS011;51514;52.206;5.114;2022-12-24T03:26:49;28.77;;;5.75;;
64885;SDS011;51514;52.206;5.114;2022-12-24T03:29:16;28.20;;;7.95;;
64885;SDS011;51514;52.206;5.114;2022-12-24T03:31:49;26.23;;;6.25;;
64885;SDS011;51514;52.206;5.114;2022-12-24T03:34:17;32.05;;;6.28;;
64885;SDS011;51514;52.206;5.114;2022-12-24T03:36:43;32.85;;;7.88;;
64885;SDS011;51514;52.206;5.114;2022-12-24T03:39:09;35.63;;;6.60;;
64885;SDS011;51514;52.206;5.114;2022-12-24T03:41:35;35.25;;;6.93;;
64885;SDS011;51514;52.206;5.114;2022-12-24T03:44:01;32.65;;;5.38;;
64885;SDS011;51514;52.206;5.114;2022-12-24T03:46:28;36.97;;;7.45;;
64885;SDS011;51514;52.206;5.114;2022-12-24T03:48:53;30.05;;;6.97;;
64885;SDS011;51514;52.206;5.114;2022-12-24T03:51:20;31.17;;;6.63;;
64885;SDS011;51514;52.206;5.114;2022-12-24T03:53:47;31.90;;;6.38;;
64885;SDS011;51514;52.206;5.114;2022-12-24T03:56:13;27.83;;;6.57;;
64885;SDS011;51514;52.206;5.114;2022-12-24T03:58:38;31.00;;;6.90;;
64885;SDS011;51514;52.206;5.114;2022-12-24T04:01:04;37.60;;;7.70;;
64885;SDS011;51514;52.206;5.114;2022-12-24T04:03:29;36.63;;;7.38;;
64885;SDS011;51514;52.206;5.114;2022-12-24T04:05:59;41.40;;;6.60;;
64885;SDS011;51514;52.206;5.114;2022-12-24T04:08:32;31.45;;;7.55;;
64885;SDS011;51514;52.206;5.114;2022-12-24T04:10:58;37.95;;;7.07;;
64885;SDS011;51514;52.206;5.114;2022-12-24T04:13:23;32.38;;;6.35;;
64885;SDS011;51514;52.206;5.114;2022-12-24T04:15:59;40.35;;;6.93;;
64885;SDS011;51514;52.206;5.114;2022-12-24T04:18:25;27.85;;;7.53;;
64885;SDS011;51514;52.206;5.114;2022-12-24T04:20:51;32.50;;;7.85;;
64885;SDS011;51514;52.206;5.114;2022-12-24T04:23:17;41.53;;;6.97;;
64885;SDS011;51514;52.206;5.114;2022-12-24T04:25:42;37.92;;;8.85;;
64885;SDS011;51514;52.206;5.114;2022-12-24T04:28:07;39.95;;;7.45;;
64885;SDS011;51514;52.206;5.114;2022-12-24T04:30:33;33.30;;;7.10;;
64885;SDS011;51514;52.206;5.114;2022-12-24T04:32:58;41.00;;;8.15;;
64885;SDS011;51514;52.206;5.114;2022-12-24T04:35:23;37.00;;;6.53;;
64885;SDS011;51514;52.206;5.114;2022-12-24T04:37:49;34.75;;;8.18;;
64885;SDS011;51514;52.206;5.114;2022-12-24T04:40:14;35.92;;;8.52;;
64885;SDS011;51514;52.206;5.114;2022-12-24T04:42:39;37.17;;;7.75;;
64885;SDS011;51514;52.206;5.114;2022-12-24T04:45:05;39.42;;;8.68;;
64885;SDS011;51514;52.206;5.114;2022-12-24T04:47:31;46.35;;;8.23;;
64885;SDS011;51514;52.206;5.114;2022-12-24T04:49:56;48.25;;;10.18;;
64885;SDS011;51514;52.206;5.114;2022-12-24T04:52:21;32.63;;;7.68;;
64885;SDS011;51514;52.206;5.114;2022-12-24T04:54:47;37.88;;;9.10;;
64885;SDS011;51514;52.206;5.114;2022-12-24T04:57:12;36.00;;;8.63;;
64885;SDS011;51514;52.206;5.114;2022-12-24T04:59:37;42.42;;;8.02;;
64885;SDS011;51514;52.206;5.114;2022-12-24T05:02:03;37.15;;;8.32;;
64885;SDS011;51514;52.206;5.114;2022-12-24T05:04:28;38.42;;;8.40;;
64885;SDS011;51514;52.206;5.114;2022-12-24T05:06:54;40.38;;;8.50;;
64885;SDS011;51514;52.206;5.114;2022-12-24T05:09:19;34.67;;;8.60;;
64885;SDS011;51514;52.206;5.114;2022-12-24T05:11:45;37.33;;;8.27;;
64885;SDS011;51514;52.206;5.114;2022-12-24T05:14:10;43.75;;;9.20;;
64885;SDS011;51514;52.206;5.114;2022-12-24T05:16:35;41.88;;;7.55;;
64885;SDS011;51514;52.206;5.114;2022-12-24T05:19:02;38.45;;;7.80;;
64885;SDS011;51514;52.206;5.114;2022-12-24T05:21:27;32.95;;;8.15;;
64885;SDS011;51514;52.206;5.114;2022-12-24T05:23:53;28.58;;;6.25;;
64885;SDS011;51514;52.206;5.114;2022-12-24T05:26:45;37.05;;;7.53;;
64885;SDS011;51514;52.206;5.114;2022-12-24T05:29:14;48.75;;;9.35;;
64885;SDS011;51514;52.206;5.114;2022-12-24T05:31:40;30.80;;;8.15;;
64885;SDS011;51514;52.206;5.114;2022-12-24T05:34:06;40.47;;;6.45;;
64885;SDS011;51514;52.206;5.114;2022-12-24T05:36:32;40.92;;;8.70;;
64885;SDS011;51514;52.206;5.114;2022-12-24T05:38:58;35.55;;;6.32;;
64885;SDS011;51514;52.206;5.114;2022-12-24T05:41:23;36.65;;;8.68;;
64885;SDS011;51514;52.206;5.114;2022-12-24T05:43:49;35.65;;;8.25;;
64885;SDS011;51514;52.206;5.114;2022-12-24T05:46:16;38.85;;;8.63;;
64885;SDS011;51514;52.206;5.114;2022-12-24T05:48:43;35.08;;;6.45;;
64885;SDS011;51514;52.206;5.114;2022-12-24T05:51:09;40.33;;;6.85;;
64885;SDS011;51514;52.206;5.114;2022-12-24T05:53:36;44.55;;;9.38;;
64885;SDS011;51514;52.206;5.114;2022-12-24T05:56:06;37.60;;;7.70;;
64885;SDS011;51514;52.206;5.114;2022-12-24T05:58:34;44.15;;;9.32;;
64885;SDS011;51514;52.206;5.114;2022-12-24T06:01:00;32.25;;;9.40;;
64885;SDS011;51514;52.206;5.114;2022-12-24T06:03:26;41.90;;;6.40;;
64885;SDS011;51514;52.206;5.114;2022-12-24T06:06:06;43.65;;;9.48;;
64885;SDS011;51514;52.206;5.114;2022-12-24T06:08:35;36.53;;;6.78;;
64885;SDS011;51514;52.206;5.114;2022-12-24T06:11:02;42.33;;;8.70;;
64885;SDS011;51514;52.206;5.114;2022-12-24T06:13:30;32.33;;;8.13;;
64885;SDS011;51514;52.206;5.114;2022-12-24T06:15:56;35.95;;;8.45;;
64885;SDS011;51514;52.206;5.114;2022-12-24T06:18:22;44.30;;;7.72;;
64885;SDS011;51514;52.206;5.114;2022-12-24T06:20:49;39.03;;;8.23;;
64885;SDS011;51514;52.206;5.114;2022-12-24T06:23:18;33.75;;;8.05;;
64885;SDS011;51514;52.206;5.114;2022-12-24T06:25:44;38.75;;;7.55;;
64885;SDS011;51514;52.206;5.114;2022-12-24T06:28:09;45.88;;;7.63;;
64885;SDS011;51514;52.206;5.114;2022-12-24T06:30:35;39.50;;;8.38;;
64885;SDS011;51514;52.206;5.114;2022-12-24T06:33:00;41.58;;;8.75;;
64885;SDS011;51514;52.206;5.114;2022-12-24T06:35:26;40.50;;;9.07;;
64885;SDS011;51514;52.206;5.114;2022-12-24T06:37:51;48.38;;;8.80;;
64885;SDS011;51514;52.206;5.114;2022-12-24T06:40:16;42.10;;;9.55;;
64885;SDS011;51514;52.206;5.114;2022-12-24T06:42:42;54.97;;;10.10;;
64885;SDS011;51514;52.206;5.114;2022-12-24T06:45:07;43.92;;;9.52;;
64885;SDS011;51514;52.206;5.114;2022-12-24T06:47:33;52.88;;;10.13;;
64885;SDS011;51514;52.206;5.114;2022-12-24T06:49:58;44.95;;;8.45;;
64885;SDS011;51514;52.206;5.114;2022-12-24T06:52:23;39.60;;;8.48;;
64885;SDS011;51514;52.206;5.114;2022-12-24T06:54:49;33.38;;;8.20;;
64885;SDS011;51514;52.206;5.114;2022-12-24T06:57:14;42.67;;;8.55;;
64885;SDS011;51514;52.206;5.114;2022-12-24T06:59:39;43.30;;;9.27;;
64885;SDS011;51514;52.206;5.114;2022-12-24T07:02:05;45.60;;;8.30;;
64885;SDS011;51514;52.206;5.114;2022-12-24T07:04:30;43.55;;;8.52;;
64885;SDS011;51514;52.206;5.114;2022-12-24T07:06:56;43.78;;;8.02;;
64885;SDS011;51514;52.206;5.114;2022-12-24T07:09:21;43.17;;;8.98;;
64885;SDS011;51514;52.206;5.114;2022-12-24T07:11:46;45.80;;;8.30;;
64885;SDS011;51514;52.206;5.114;2022-12-24T07:14:12;39.45;;;8.20;;
64885;SDS011;51514;52.206;5.114;2022-12-24T07:16:37;43.78;;;8.10;;
64885;SDS011;51514;52.206;5.114;2022-12-24T07:19:02;44.00;;;8.60;;
64885;SDS011;51514;52.206;5.114;2022-12-24T07:21:27;42.45;;;8.57;;
64885;SDS011;51514;52.206;5.114;2022-12-24T07:23:53;48.90;;;12.10;;
64885;SDS011;51514;52.206;5.114;2022-12-24T07:26:18;46.42;;;9.65;;
64885;SDS011;51514;52.206;5.114;2022-12-24T07:28:43;40.58;;;9.70;;
64885;SDS011;51514;52.206;5.114;2022-12-24T07:31:09;49.20;;;8.95;;
64885;SDS011;51514;52.206;5.114;2022-12-24T07:33:34;43.72;;;7.97;;
64885;SDS011;51514;52.206;5.114;2022-12-24T07:36:00;43.00;;;9.73;;
64885;SDS011;51514;52.206;5.114;2022-12-24T07:38:28;47.65;;;9.25;;
64885;SDS011;51514;52.206;5.114;2022-12-24T07:40:54;35.90;;;8.75;;
64885;SDS011;51514;52.206;5.114;2022-12-24T07:43:20;46.38;;;10.73;;
64885;SDS011;51514;52.206;5.114;2022-12-24T07:45:45;40.65;;;9.05;;
64885;SDS011;51514;52.206;5.114;2022-12-24T07:48:11;47.92;;;8.55;;
64885;SDS011;51514;52.206;5.114;2022-12-24T07:50:36;57.55;;;9.68;;
64885;SDS011;51514;52.206;5.114;2022-12-24T07:53:01;44.17;;;10.07;;
64885;SDS011;51514;52.206;5.114;2022-12-24T07:55:27;44.75;;;10.63;;
64885;SDS011;51514;52.206;5.114;2022-12-24T07:57:52;56.35;;;9.43;;
64885;SDS011;51514;52.206;5.114;2022-12-24T08:00:17;47.55;;;10.15;;
64885;SDS011;51514;52.206;5.114;2022-12-24T08:02:43;36.35;;;8.13;;
64885;SDS011;51514;52.206;5.114;2022-12-24T08:05:08;41.97;;;8.20;;
64885;SDS011;51514;52.206;5.114;2022-12-24T08:07:34;49.83;;;9.63;;
64885;SDS011;51514;52.206;5.114;2022-12-24T08:09:59;41.13;;;9.05;;
64885;SDS011;51514;52.206;5.114;2022-12-24T08:12:24;51.72;;;9.30;;
64885;SDS011;51514;52.206;5.114;2022-12-24T08:14:50;46.08;;;9.60;;
64885;SDS011;51514;52.206;5.114;2022-12-24T08:17:15;46.00;;;8.55;;
64885;SDS011;51514;52.206;5.114;2022-12-24T08:19:40;43.30;;;9.48;;
64885;SDS011;51514;52.206;5.114;2022-12-24T08:22:06;40.17;;;7.78;;
64885;SDS011;51514;52.206;5.114;2022-12-24T08:24:31;46.60;;;8.70;;
64885;SDS011;51514;52.206;5.114;2022-12-24T08:26:56;45.15;;;9.65;;
64885;SDS011;51514;52.206;5.114;2022-12-24T08:29:22;49.30;;;9.50;;
64885;SDS011;51514;52.206;5.114;2022-12-24T08:31:47;39.50;;;8.73;;
64885;SDS011;51514;52.206;5.114;2022-12-24T08:34:12;49.20;;;10.63;;
64885;SDS011;51514;52.206;5.114;2022-12-24T08:36:38;45.42;;;8.73;;
64885;SDS011;51514;52.206;5.114;2022-12-24T08:39:03;51.78;;;9.93;;
64885;SDS011;51514;52.206;5.114;2022-12-24T08:41:29;40.45;;;8.40;;
64885;SDS011;51514;52.206;5.114;2022-12-24T08:43:55;41.40;;;8.77;;
64885;SDS011;51514;52.206;5.114;2022-12-24T08:46:20;45.75;;;9.18;;
64885;SDS011;51514;52.206;5.114;2022-12-24T08:48:46;41.42;;;9.27;;
64885;SDS011;51514;52.206;5.114;2022-12-24T08:51:11;46.00;;;9.45;;
64885;SDS011;51514;52.206;5.114;2022-12-24T08:53:37;46.30;;;9.55;;
64885;SDS011;51514;52.206;5.114;2022-12-24T08:56:05;43.83;;;8.25;;
64885;SDS011;51514;52.206;5.114;2022-12-24T08:58:32;56.65;;;9.23;;
64885;SDS011;51514;52.206;5.114;2022-12-24T09:00:57;39.17;;;7.03;;
64885;SDS011;51514;52.206;5.114;2022-12-24T09:03:23;57.30;;;11.00;;
64885;SDS011;51514;52.206;5.114;2022-12-24T09:05:49;52.08;;;9.15;;
64885;SDS011;51514;52.206;5.114;2022-12-24T09:08:14;46.42;;;10.27;;
64885;SDS011;51514;52.206;5.114;2022-12-24T09:10:40;51.53;;;11.55;;
64885;SDS011;51514;52.206;5.114;2022-12-24T09:13:05;44.05;;;7.65;;
64885;SDS011;51514;52.206;5.114;2022-12-24T09:15:31;40.30;;;8.82;;
64885;SDS011;51514;52.206;5.114;2022-12-24T09:17:56;38.00;;;8.45;;
64885;SDS011;51514;52.206;5.114;2022-12-24T09:20:22;43.17;;;9.68;;
64885;SDS011;51514;52.206;5.114;2022-12-24T09:22:47;34.17;;;8.52;;
64885;SDS011;51514;52.206;5.114;2022-12-24T09:25:12;41.10;;;8.88;;
64885;SDS011;51514;52.206;5.114;2022-12-24T09:27:38;47.53;;;7.97;;
64885;SDS011;51514;52.206;5.114;2022-12-24T09:30:04;40.78;;;8.65;;
64885;SDS011;51514;52.206;5.114;2022-12-24T09:32:30;45.15;;;9.85;;
64885;SDS011;51514;52.206;5.114;2022-12-24T09:34:55;35.17;;;7.80;;
64885;SDS011;51514;52.206;5.114;2022-12-24T09:37:21;42.85;;;9.95;;
64885;SDS011;51514;52.206;5.114;2022-12-24T09:39:46;43.15;;;10.02;;
64885;SDS011;51514;52.206;5.114;2022-12-24T09:44:48;53.75;;;8.55;;
64885;SDS011;51514;52.206;5.114;2022-12-24T09:50:04;44.42;;;10.30;;
64885;SDS011;51514;52.206;5.114;2022-12-24T09:52:52;40.78;;;8.30;;
64885;SDS011;51514;52.206;5.114;2022-12-24T09:57:52;53.05;;;9.90;;
64885;SDS011;51514;52.206;5.114;2022-12-24T10:00:20;43.80;;;7.32;;
64885;SDS011;51514;52.206;5.114;2022-12-24T10:02:49;49.13;;;9.40;;
64885;SDS011;51514;52.206;5.114;2022-12-24T10:05:26;45.22;;;8.57;;
64885;SDS011;51514;52.206;5.114;2022-12-24T10:08:13;44.33;;;8.73;;
64885;SDS011;51514;52.206;5.114;2022-12-24T10:11:14;31.60;;;7.80;;
64885;SDS011;51514;52.206;5.114;2022-12-24T10:14:07;44.10;;;9.43;;
64885;SDS011;51514;52.206;5.114;2022-12-24T10:19:46;36.33;;;8.73;;
64885;SDS011;51514;52.206;5.114;2022-12-24T10:25:03;37.97;;;7.95;;
64885;SDS011;51514;52.206;5.114;2022-12-24T10:30:11;38.88;;;7.78;;
64885;SDS011;51514;52.206;5.114;2022-12-24T10:32:39;40.35;;;7.97;;
64885;SDS011;51514;52.206;5.114;2022-12-24T10:37:41;36.70;;;7.38;;
64885;SDS011;51514;52.206;5.114;2022-12-24T10:40:37;42.35;;;9.13;;
64885;SDS011;51514;52.206;5.114;2022-12-24T10:43:13;32.92;;;7.13;;
64885;SDS011;51514;52.206;5.114;2022-12-24T10:45:41;39.50;;;7.88;;
64885;SDS011;51514;52.206;5.114;2022-12-24T10:48:13;31.63;;;6.68;;
64885;SDS011;51514;52.206;5.114;2022-12-24T10:51:09;36.00;;;7.45;;
64885;SDS011;51514;52.206;5.114;2022-12-24T10:53:46;31.27;;;7.00;;
64885;SDS011;51514;52.206;5.114;2022-12-24T10:56:17;36.97;;;7.60;;
64885;SDS011;51514;52.206;5.114;2022-12-24T10:58:43;36.50;;;6.82;;
64885;SDS011;51514;52.206;5.114;2022-12-24T11:01:11;42.10;;;8.75;;
64885;SDS011;51514;52.206;5.114;2022-12-24T11:03:37;34.83;;;7.60;;
64885;SDS011;51514;52.206;5.114;2022-12-24T11:08:32;36.15;;;7.88;;
64885;SDS011;51514;52.206;5.114;2022-12-24T11:11:03;35.88;;;7.78;;
64885;SDS011;51514;52.206;5.114;2022-12-24T11:13:32;35.88;;;7.60;;
64885;SDS011;51514;52.206;5.114;2022-12-24T11:18:53;41.38;;;6.72;;
64885;SDS011;51514;52.206;5.114;2022-12-24T11:21:30;28.88;;;7.63;;
64885;SDS011;51514;52.206;5.114;2022-12-24T11:26:33;32.92;;;7.82;;
64885;SDS011;51514;52.206;5.114;2022-12-24T11:29:03;28.05;;;5.90;;
64885;SDS011;51514;52.206;5.114;2022-12-24T11:31:30;30.27;;;7.72;;
64885;SDS011;51514;52.206;5.114;2022-12-24T11:33:59;30.48;;;7.95;;
64885;SDS011;51514;52.206;5.114;2022-12-24T11:36:25;39.50;;;7.97;;
64885;SDS011;51514;52.206;5.114;2022-12-24T11:38:55;34.13;;;6.25;;
64885;SDS011;51514;52.206;5.114;2022-12-24T11:41:22;25.00;;;7.32;;
64885;SDS011;51514;52.206;5.114;2022-12-24T11:43:56;36.42;;;8.07;;
64885;SDS011;51514;52.206;5.114;2022-12-24T11:51:39;27.63;;;5.78;;
64885;SDS011;51514;52.206;5.114;2022-12-24T11:54:18;28.77;;;7.65;;
64885;SDS011;51514;52.206;5.114;2022-12-24T11:56:51;29.95;;;6.75;;
64885;SDS011;51514;52.206;5.114;2022-12-24T12:04:37;27.60;;;6.97;;
64885;SDS011;51514;52.206;5.114;2022-12-24T12:07:13;29.55;;;6.93;;
64885;SDS011;51514;52.206;5.114;2022-12-24T12:09:46;33.40;;;6.35;;
64885;SDS011;51514;52.206;5.114;2022-12-24T12:12:20;26.98;;;5.18;;
64885;SDS011;51514;52.206;5.114;2022-12-24T12:19:57;27.02;;;6.28;;
64885;SDS011;51514;52.206;5.114;2022-12-24T12:24:52;30.27;;;7.20;;
64885;SDS011;51514;52.206;5.114;2022-12-24T12:30:03;30.50;;;6.43;;
64885;SDS011;51514;52.206;5.114;2022-12-24T12:38:00;25.67;;;5.65;;
64885;SDS011;51514;52.206;5.114;2022-12-24T12:43:32;27.40;;;6.30;;
64885;SDS011;51514;52.206;5.114;2022-12-24T12:54:27;32.28;;;7.38;;
64885;SDS011;51514;52.206;5.114;2022-12-24T12:57:05;29.33;;;7.28;;
64885;SDS011;51514;52.206;5.114;2022-12-24T13:15:58;34.85;;;7.25;;
64885;SDS011;51514;52.206;5.114;2022-12-24T13:20:54;25.70;;;6.25;;
64885;SDS011;51514;52.206;5.114;2022-12-24T13:23:20;33.08;;;6.70;;
64885;SDS011;51514;52.206;5.114;2022-12-24T13:25:54;31.40;;;5.25;;
64885;SDS011;51514;52.206;5.114;2022-12-24T13:30:47;29.27;;;6.22;;
64885;SDS011;51514;52.206;5.114;2022-12-24T13:36:05;26.02;;;5.55;;
64885;SDS011;51514;52.206;5.114;2022-12-24T13:38:40;35.35;;;6.43;;
64885;SDS011;51514;52.206;5.114;2022-12-24T13:49:49;25.10;;;6.03;;
64885;SDS011;51514;52.206;5.114;2022-12-24T13:52:23;34.35;;;6.60;;
64885;SDS011;51514;52.206;5.114;2022-12-24T13:55:03;27.63;;;5.65;;
64885;SDS011;51514;52.206;5.114;2022-12-24T13:57:34;29.05;;;5.78;;
64885;SDS011;51514;52.206;5.114;2022-12-24T14:03:27;27.98;;;5.82;;
64885;SDS011;51514;52.206;5.114;2022-12-24T14:05:43;27.13;;;6.38;;
64885;SDS011;51514;52.206;5.114;2022-12-24T14:08:13;29.40;;;6.63;;
64885;SDS011;51514;52.206;5.114;2022-12-24T14:10:58;26.40;;;6.80;;
64885;SDS011;51514;52.206;5.114;2022-12-24T14:18:45;23.98;;;5.40;;
64885;SDS011;51514;52.206;5.114;2022-12-24T14:21:50;28.58;;;5.90;;
64885;SDS011;51514;52.206;5.114;2022-12-24T14:24:22;25.02;;;5.78;;
64885;SDS011;51514;52.206;5.114;2022-12-24T14:26:53;29.25;;;5.97;;
64885;SDS011;51514;52.206;5.114;2022-12-24T14:31:52;26.25;;;5.53;;
64885;SDS011;51514;52.206;5.114;2022-12-24T14:34:18;29.20;;;5.88;;
64885;SDS011;51514;52.206;5.114;2022-12-24T14:36:44;24.60;;;5.03;;
64885;SDS011;51514;52.206;5.114;2022-12-24T14:39:15;27.73;;;7.10;;
64885;SDS011;51514;52.206;5.114;2022-12-24T14:41:49;22.83;;;6.78;;
64885;SDS011;51514;52.206;5.114;2022-12-24T14:44:39;30.92;;;6.32;;
64885;SDS011;51514;52.206;5.114;2022-12-24T15:00:51;28.30;;;6.47;;
64885;SDS011;51514;52.206;5.114;2022-12-24T15:03:20;18.13;;;6.67;;
64885;SDS011;51514;52.206;5.114;2022-12-24T15:06:03;26.98;;;6.90;;
64885;SDS011;51514;52.206;5.114;2022-12-24T15:08:35;27.17;;;6.47;;
64885;SDS011;51514;52.206;5.114;2022-12-24T15:11:04;28.60;;;6.85;;
64885;SDS011;51514;52.206;5.114;2022-12-24T15:13:34;25.73;;;5.07;;
64885;SDS011;51514;52.206;5.114;2022-12-24T15:16:03;28.33;;;5.88;;
64885;SDS011;51514;52.206;5.114;2022-12-24T15:18:32;26.45;;;5.25;;
64885;SDS011;51514;52.206;5.114;2022-12-24T15:21:01;34.93;;;7.23;;
64885;SDS011;51514;52.206;5.114;2022-12-24T15:23:33;21.63;;;5.30;;
64885;SDS011;51514;52.206;5.114;2022-12-24T15:26:33;22.52;;;5.63;;
64885;SDS011;51514;52.206;5.114;2022-12-24T15:28:56;31.70;;;6.07;;
64885;SDS011;51514;52.206;5.114;2022-12-24T15:31:23;26.88;;;5.50;;
64885;SDS011;51514;52.206;5.114;2022-12-24T15:33:51;33.83;;;5.97;;
64885;SDS011;51514;52.206;5.114;2022-12-24T15:36:26;29.77;;;5.60;;
64885;SDS011;51514;52.206;5.114;2022-12-24T15:38:55;30.00;;;6.07;;
64885;SDS011;51514;52.206;5.114;2022-12-24T15:41:24;20.35;;;4.93;;
64885;SDS011;51514;52.206;5.114;2022-12-24T15:43:54;26.42;;;4.93;;
64885;SDS011;51514;52.206;5.114;2022-12-24T15:46:25;22.88;;;5.43;;
64885;SDS011;51514;52.206;5.114;2022-12-24T15:48:53;25.35;;;5.78;;
64885;SDS011;51514;52.206;5.114;2022-12-24T15:51:25;23.88;;;6.20;;
64885;SDS011;51514;52.206;5.114;2022-12-24T15:53:56;33.55;;;7.13;;
64885;SDS011;51514;52.206;5.114;2022-12-24T15:56:29;33.92;;;7.85;;
64885;SDS011;51514;52.206;5.114;2022-12-24T16:02:16;31.20;;;8.18;;
64885;SDS011;51514;52.206;5.114;2022-12-24T16:07:42;34.63;;;6.47;;
64885;SDS011;51514;52.206;5.114;2022-12-24T16:10:40;31.10;;;7.47;;
64885;SDS011;51514;52.206;5.114;2022-12-24T16:13:12;31.70;;;6.85;;
64885;SDS011;51514;52.206;5.114;2022-12-24T16:15:45;27.25;;;8.18;;
64885;SDS011;51514;52.206;5.114;2022-12-24T16:18:19;34.08;;;6.93;;
64885;SDS011;51514;52.206;5.114;2022-12-24T16:20:48;28.95;;;6.10;;
64885;SDS011;51514;52.206;5.114;2022-12-24T16:23:16;23.75;;;6.30;;
64885;SDS011;51514;52.206;5.114;2022-12-24T16:25:43;32.00;;;8.52;;
64885;SDS011;51514;52.206;5.114;2022-12-24T16:28:12;35.40;;;7.85;;
64885;SDS011;51514;52.206;5.114;2022-12-24T16:30:38;24.10;;;6.32;;
64885;SDS011;51514;52.206;5.114;2022-12-24T16:33:03;36.03;;;7.03;;
64885;SDS011;51514;52.206;5.114;2022-12-24T16:35:30;28.88;;;8.05;;
64885;SDS011;51514;52.206;5.114;2022-12-24T16:38:01;29.00;;;6.07;;
64885;SDS011;51514;52.206;5.114;2022-12-24T16:40:27;25.23;;;7.68;;
64885;SDS011;51514;52.206;5.114;2022-12-24T16:42:52;27.10;;;6.05;;
64885;SDS011;51514;52.206;5.114;2022-12-24T16:45:36;31.80;;;7.65;;
64885;SDS011;51514;52.206;5.114;2022-12-24T16:48:02;34.00;;;8.07;;
64885;SDS011;51514;52.206;5.114;2022-12-24T16:50:30;31.73;;;7.30;;
64885;SDS011;51514;52.206;5.114;2022-12-24T16:52:56;29.48;;;7.40;;
64885;SDS011;51514;52.206;5.114;2022-12-24T16:55:21;33.45;;;9.15;;
64885;SDS011;51514;52.206;5.114;2022-12-24T16:57:46;25.52;;;7.25;;
64885;SDS011;51514;52.206;5.114;2022-12-24T17:00:19;30.90;;;8.65;;
64885;SDS011;51514;52.206;5.114;2022-12-24T17:02:46;34.47;;;8.48;;
64885;SDS011;51514;52.206;5.114;2022-12-24T17:05:13;30.48;;;7.75;;
64885;SDS011;51514;52.206;5.114;2022-12-24T17:07:38;34.38;;;8.95;;
64885;SDS011;51514;52.206;5.114;2022-12-24T17:10:04;35.40;;;7.95;;
64885;SDS011;51514;52.206;5.114;2022-12-24T17:12:32;40.85;;;8.23;;
64885;SDS011;51514;52.206;5.114;2022-12-24T17:14:57;43.28;;;9.77;;